createdAt,value
2022-11-16T00:02:14.174Z,4.72
2022-11-16T00:04:42.588Z,3.88
2022-11-16T00:07:47.894Z,5.68
2022-11-16T00:10:16.269Z,3.45
2022-11-16T00:12:44.449Z,4.55
2022-11-16T00:15:12.733Z,3.97
2022-11-16T00:17:40.786Z,7.60
2022-11-16T00:20:46.004Z,5.63
2022-11-16T00:23:14.195Z,3.95
2022-11-16T00:25:42.455Z,4.07
2022-11-16T00:28:11.252Z,4.30
2022-11-16T00:30:39.535Z,4.13
2022-11-16T00:33:09.136Z,3.35
2022-11-16T00:35:41.354Z,7.18
2022-11-16T00:38:09.723Z,5.63
2022-11-16T00:40:37.931Z,7.30
2022-11-16T00:43:25.677Z,4.55
2022-11-16T00:46:12.124Z,5.32
2022-11-16T00:48:40.359Z,3.17
2022-11-16T00:51:08.661Z,4.88
2022-11-16T00:53:55.526Z,3.58
2022-11-16T00:56:24.595Z,4.65
2022-11-16T00:58:52.776Z,7.22
2022-11-16T01:01:21.037Z,2.67
2022-11-16T01:03:52.088Z,6.18
2022-11-16T01:06:21.110Z,4.40
2022-11-16T01:09:08.072Z,1.83
2022-11-16T01:11:54.703Z,4.30
2022-11-16T01:14:22.822Z,4.93
2022-11-16T01:16:51.214Z,2.45
2022-11-16T01:19:21.255Z,4.47
2022-11-16T01:21:49.475Z,4.50
2022-11-16T01:24:17.787Z,4.75
2022-11-16T01:29:49.732Z,3.25
2022-11-16T01:32:18.697Z,4.22
2022-11-16T01:34:47.616Z,3.55
2022-11-16T01:37:28.229Z,2.90
2022-11-16T01:39:56.650Z,4.60
2022-11-16T01:42:27.724Z,3.60
2022-11-16T01:45:18.885Z,4.85
2022-11-16T01:47:47.554Z,5.72
2022-11-16T01:50:20.907Z,7.65
2022-11-16T01:53:00.357Z,5.63
2022-11-16T01:55:36.129Z,8.48
2022-11-16T01:58:23.479Z,3.88
2022-11-16T02:00:58.134Z,2.40
2022-11-16T02:03:57.981Z,5.45
2022-11-16T02:06:26.536Z,3.83
2022-11-16T02:09:49.541Z,2.17
2022-11-16T02:12:23.684Z,4.65
2022-11-16T02:15:20.419Z,6.05
2022-11-16T02:18:21.124Z,4.07
2022-11-16T02:21:31.379Z,2.63
2022-11-16T02:24:05.521Z,4.10
2022-11-16T02:29:47.859Z,6.82
2022-11-16T02:32:55.430Z,3.58
2022-11-16T02:38:40.933Z,4.07
2022-11-16T02:44:28.456Z,4.78
2022-11-16T02:47:00.387Z,3.35
2022-11-16T02:49:31.648Z,2.47
2022-11-16T02:52:00.657Z,4.53
2022-11-16T02:54:29.060Z,4.38
2022-11-16T02:57:30.272Z,4.07
2022-11-16T03:00:00.896Z,2.17
2022-11-16T03:02:58.374Z,6.65
2022-11-16T03:05:41.075Z,7.15
2022-11-16T03:08:54.820Z,2.78
2022-11-16T03:11:42.311Z,4.38
2022-11-16T03:14:15.435Z,3.78
2022-11-16T03:16:49.293Z,4.22
2022-11-16T03:19:24.103Z,5.05
2022-11-16T03:22:07.782Z,6.13
2022-11-16T03:24:39.252Z,4.18
2022-11-16T03:27:16.786Z,5.00
2022-11-16T03:30:08.548Z,4.38
2022-11-16T03:33:09.629Z,3.88
2022-11-16T03:35:49.793Z,1.60
2022-11-16T03:38:20.586Z,3.88
2022-11-16T03:40:51.285Z,3.97
2022-11-16T03:43:21.039Z,3.08
2022-11-16T03:45:49.792Z,3.33
2022-11-16T03:48:36.672Z,1.85
2022-11-16T03:51:10.744Z,1.98
2022-11-16T03:53:40.549Z,5.10
2022-11-16T03:56:10.533Z,1.60
2022-11-16T03:58:40.074Z,3.25
2022-11-16T04:01:08.302Z,4.47
2022-11-16T04:03:36.424Z,7.43
2022-11-16T04:06:23.371Z,5.28
2022-11-16T04:09:10.287Z,3.50
2022-11-16T04:12:17.639Z,4.32
2022-11-16T04:15:04.000Z,2.78
2022-11-16T04:17:52.974Z,5.18
2022-11-16T04:20:39.867Z,3.83
2022-11-16T04:23:33.878Z,4.35
2022-11-16T04:26:06.695Z,5.68
2022-11-16T04:28:36.055Z,5.28
2022-11-16T04:31:25.854Z,1.90
2022-11-16T04:34:31.915Z,2.88
2022-11-16T04:37:18.769Z,5.18
2022-11-16T04:40:05.535Z,2.35
2022-11-16T04:42:33.869Z,6.60
2022-11-16T04:45:20.671Z,3.38
2022-11-16T04:47:52.692Z,4.57
2022-11-16T04:50:23.423Z,7.80
2022-11-16T04:53:10.584Z,2.75
2022-11-16T04:55:45.781Z,2.78
2022-11-16T04:58:15.501Z,5.40
2022-11-16T05:00:43.716Z,2.55
2022-11-16T05:03:30.921Z,4.18
2022-11-16T05:05:59.134Z,2.92
2022-11-16T05:08:27.429Z,2.67
2022-11-16T05:11:14.313Z,2.75
2022-11-16T05:13:42.688Z,2.03
2022-11-16T05:16:29.673Z,3.42
2022-11-16T05:19:16.441Z,2.10
2022-11-16T05:22:22.203Z,2.25
2022-11-16T05:24:52.251Z,4.53
2022-11-16T05:27:39.480Z,2.95
2022-11-16T05:30:09.302Z,2.13
2022-11-16T05:32:37.446Z,2.72
2022-11-16T05:35:07.158Z,3.10
2022-11-16T05:37:35.321Z,5.30
2022-11-16T05:40:03.542Z,2.22
2022-11-16T05:42:41.780Z,5.20
2022-11-16T05:45:10.633Z,2.15
2022-11-16T05:47:38.762Z,1.52
2022-11-16T05:50:07.630Z,2.33
2022-11-16T05:52:40.428Z,3.08
2022-11-16T05:55:11.762Z,3.38
2022-11-16T05:57:45.109Z,3.60
2022-11-16T06:00:13.907Z,3.10
2022-11-16T06:02:48.920Z,1.85
2022-11-16T06:05:24.777Z,4.10
2022-11-16T06:07:54.049Z,5.72
2022-11-16T06:10:22.602Z,5.70
2022-11-16T06:12:52.754Z,4.60
2022-11-16T06:15:21.004Z,1.58
2022-11-16T06:17:49.077Z,1.77
2022-11-16T06:20:17.574Z,3.90
2022-11-16T06:25:57.196Z,1.95
2022-11-16T06:28:28.067Z,3.33
2022-11-16T06:30:56.662Z,4.40
2022-11-16T06:33:29.663Z,5.97
2022-11-16T06:36:02.025Z,2.50
2022-11-16T06:38:30.175Z,4.80
2022-11-16T06:40:59.359Z,2.58
2022-11-16T06:43:29.489Z,3.30
2022-11-16T06:45:58.724Z,2.53
2022-11-16T06:48:26.968Z,2.22
2022-11-16T06:50:55.485Z,3.15
2022-11-16T06:53:28.929Z,2.90
2022-11-16T06:56:12.788Z,2.20
2022-11-16T06:58:45.274Z,2.38
2022-11-16T07:01:15.486Z,6.20
2022-11-16T07:03:45.687Z,1.40
2022-11-16T07:06:15.085Z,1.55
2022-11-16T07:08:45.921Z,1.50
2022-11-16T07:13:45.250Z,2.25
2022-11-16T07:16:14.327Z,3.42
2022-11-16T07:18:49.483Z,2.60
2022-11-16T07:21:17.698Z,3.25
2022-11-16T07:23:46.707Z,5.03
2022-11-16T07:26:33.897Z,3.30
2022-11-16T07:29:12.737Z,5.93
2022-11-16T07:31:46.230Z,1.67
2022-11-16T07:34:31.137Z,4.63
2022-11-16T07:37:12.355Z,4.65
2022-11-16T07:39:59.689Z,6.00
2022-11-16T07:42:27.779Z,6.05
2022-11-16T07:45:08.614Z,4.95
2022-11-16T07:47:41.141Z,2.97
2022-11-16T07:50:14.556Z,3.53
2022-11-16T07:52:46.683Z,2.13
2022-11-16T07:55:21.605Z,3.70
2022-11-16T07:57:53.640Z,2.97
2022-11-16T08:00:40.048Z,5.63
2022-11-16T08:03:19.240Z,4.18
2022-11-16T08:05:59.725Z,3.50
2022-11-16T08:08:28.023Z,5.40
2022-11-16T08:11:03.140Z,4.95
2022-11-16T08:13:34.595Z,7.18
2022-11-16T08:16:23.088Z,5.22
2022-11-16T08:19:02.734Z,6.40
2022-11-16T08:21:30.836Z,3.10
2022-11-16T08:23:59.261Z,6.95
2022-11-16T08:26:28.144Z,2.83
2022-11-16T08:29:02.131Z,6.68
2022-11-16T08:31:34.676Z,7.35
2022-11-16T08:34:09.517Z,7.00
2022-11-16T08:36:40.945Z,4.57
2022-11-16T08:39:09.701Z,3.85
2022-11-16T08:41:57.306Z,2.47
2022-11-16T08:44:25.374Z,4.93
2022-11-16T08:46:55.751Z,3.30
2022-11-16T08:49:34.019Z,4.72
2022-11-16T08:52:01.976Z,10.13
2022-11-16T08:54:31.813Z,4.82
2022-11-16T08:57:00.204Z,3.40
2022-11-16T08:59:32.070Z,7.45
2022-11-16T09:02:06.910Z,11.40
2022-11-16T09:04:37.258Z,7.53
2022-11-16T09:07:05.505Z,8.73
2022-11-16T09:09:33.545Z,6.47
2022-11-16T09:12:01.618Z,10.13
2022-11-16T09:14:30.846Z,14.40
2022-11-16T09:16:58.879Z,7.50
2022-11-16T09:19:26.944Z,11.57
2022-11-16T09:22:13.505Z,6.70
2022-11-16T09:24:41.597Z,6.28
2022-11-16T09:27:09.697Z,7.53
2022-11-16T09:29:37.725Z,5.70
2022-11-16T09:32:05.904Z,5.75
2022-11-16T09:34:37.187Z,12.00
2022-11-16T09:37:05.166Z,8.23
2022-11-16T09:39:34.673Z,6.60
2022-11-16T09:42:50.089Z,26.45
2022-11-16T09:46:02.256Z,17.58
2022-11-16T09:51:07.665Z,5.40
2022-11-16T09:53:55.458Z,5.45
2022-11-16T09:56:28.838Z,8.18
2022-11-16T09:59:12.208Z,7.65
2022-11-16T10:01:57.297Z,7.60
2022-11-16T10:04:29.734Z,11.63
2022-11-16T10:07:06.919Z,10.98
2022-11-16T10:09:36.362Z,11.32
2022-11-16T10:12:04.513Z,8.95
2022-11-16T10:14:47.326Z,10.80
2022-11-16T10:17:27.862Z,9.55
2022-11-16T10:20:52.076Z,8.30
2022-11-16T10:24:09.967Z,10.32
2022-11-16T10:27:07.542Z,9.23
2022-11-16T10:29:43.938Z,7.35
2022-11-16T10:32:22.248Z,11.20
2022-11-16T10:35:12.041Z,12.05
2022-11-16T10:37:48.037Z,14.95
2022-11-16T10:40:18.334Z,11.82
2022-11-16T10:42:55.196Z,17.13
2022-11-16T10:45:33.278Z,17.95
2022-11-16T10:48:11.395Z,16.45
2022-11-16T10:50:49.001Z,16.95
2022-11-16T10:53:28.622Z,12.50
2022-11-16T10:56:39.937Z,11.32
2022-11-16T10:59:12.938Z,15.35
2022-11-16T11:01:43.976Z,10.70
2022-11-16T11:04:32.927Z,7.63
2022-11-16T11:07:21.031Z,6.82
2022-11-16T11:09:55.743Z,8.20
2022-11-16T11:12:40.915Z,10.32
2022-11-16T11:15:12.118Z,11.68
2022-11-16T11:17:45.386Z,11.57
2022-11-16T11:20:16.570Z,10.32
2022-11-16T11:22:59.852Z,11.00
2022-11-16T11:25:52.120Z,13.52
2022-11-16T11:28:31.912Z,12.77
2022-11-16T11:31:03.114Z,13.07
2022-11-16T11:33:35.320Z,15.40
2022-11-16T11:36:19.060Z,13.50
2022-11-16T11:39:09.399Z,14.02
2022-11-16T11:41:41.550Z,14.50
2022-11-16T11:44:17.056Z,14.75
2022-11-16T11:50:53.251Z,10.73
2022-11-16T11:53:42.917Z,8.25
2022-11-16T11:56:12.656Z,11.10
2022-11-16T11:58:42.076Z,15.23
2022-11-16T12:01:25.250Z,8.70
2022-11-16T12:04:08.864Z,8.38
2022-11-16T12:06:43.787Z,8.57
2022-11-16T12:09:30.223Z,10.15
2022-11-16T12:12:23.948Z,10.75
2022-11-16T12:15:17.674Z,7.05
2022-11-16T12:18:24.609Z,6.75
2022-11-16T12:21:33.796Z,12.57
2022-11-16T12:24:17.255Z,10.60
2022-11-16T12:27:00.406Z,12.45
2022-11-16T12:29:31.248Z,12.57
2022-11-16T12:32:08.043Z,11.98
2022-11-16T12:37:49.605Z,11.50
2022-11-16T12:40:42.025Z,14.73
2022-11-16T12:43:20.901Z,10.50
2022-11-16T12:46:27.610Z,10.48
2022-11-16T12:49:49.070Z,7.60
2022-11-16T12:55:25.805Z,10.68
2022-11-16T12:58:29.295Z,9.48
2022-11-16T13:01:18.979Z,8.13
2022-11-16T13:03:57.655Z,11.88
2022-11-16T13:06:33.201Z,10.98
2022-11-16T13:09:11.440Z,12.18
2022-11-16T13:11:44.356Z,11.75
2022-11-16T13:14:17.788Z,9.15
2022-11-16T13:16:47.721Z,11.15
2022-11-16T13:19:18.296Z,10.82
2022-11-16T13:22:16.838Z,10.30
2022-11-16T13:24:58.861Z,8.45
2022-11-16T13:27:48.338Z,16.08
2022-11-16T13:30:23.540Z,12.90
2022-11-16T13:33:14.004Z,15.07
2022-11-16T13:35:42.148Z,18.17
2022-11-16T13:38:15.220Z,10.73
2022-11-16T13:40:43.314Z,10.50
2022-11-16T13:43:11.212Z,12.23
2022-11-16T13:46:01.162Z,13.40
2022-11-16T13:48:38.624Z,15.07
2022-11-16T13:51:09.109Z,10.65
2022-11-16T13:56:50.181Z,8.27
2022-11-16T13:59:26.374Z,11.93
2022-11-16T14:02:34.462Z,8.38
2022-11-16T14:05:07.068Z,14.35
2022-11-16T14:07:36.758Z,8.80
2022-11-16T14:10:06.259Z,12.35
2022-11-16T14:12:54.660Z,12.43
2022-11-16T14:15:28.895Z,14.10
2022-11-16T14:18:08.050Z,13.68
2022-11-16T14:21:11.841Z,13.35
2022-11-16T14:23:46.904Z,9.77
2022-11-16T14:26:39.396Z,13.55
2022-11-16T14:29:44.854Z,10.75
2022-11-16T14:32:29.142Z,6.43
2022-11-16T14:34:59.601Z,8.13
2022-11-16T14:37:30.554Z,17.52
2022-11-16T14:40:15.277Z,8.63
2022-11-16T14:43:20.215Z,11.13
2022-11-16T14:45:57.189Z,15.73
2022-11-16T14:48:26.537Z,10.27
2022-11-16T14:51:00.467Z,7.47
2022-11-16T14:53:29.621Z,9.35
2022-11-16T14:56:12.913Z,12.80
2022-11-16T15:01:39.108Z,12.18
2022-11-16T15:04:12.209Z,8.80
2022-11-16T15:07:17.123Z,11.75
2022-11-16T15:09:49.530Z,9.73
2022-11-16T15:12:39.279Z,13.75
2022-11-16T15:15:14.997Z,13.70
2022-11-16T15:17:52.679Z,9.07
2022-11-16T15:20:25.516Z,12.18
2022-11-16T15:22:55.979Z,11.07
2022-11-16T15:25:28.723Z,10.95
2022-11-16T15:27:58.612Z,7.75
2022-11-16T15:30:29.684Z,12.57
2022-11-16T15:32:58.082Z,11.95
2022-11-16T15:35:31.471Z,6.78
2022-11-16T15:38:12.504Z,10.05
2022-11-16T15:40:42.528Z,7.07
2022-11-16T15:43:11.557Z,10.68
2022-11-16T15:45:39.751Z,13.75
2022-11-16T15:48:08.171Z,17.65
2022-11-16T15:50:36.076Z,8.80
2022-11-16T15:53:04.139Z,8.27
2022-11-16T15:55:34.432Z,10.38
2022-11-16T15:58:06.575Z,12.48
2022-11-16T16:03:27.753Z,9.27
2022-11-16T16:05:56.247Z,11.82
2022-11-16T16:08:27.952Z,14.48
2022-11-16T16:11:27.030Z,12.80
2022-11-16T16:14:02.878Z,9.60
2022-11-16T16:16:57.679Z,13.00
2022-11-16T16:19:43.859Z,14.80
2022-11-16T16:22:37.736Z,16.98
2022-11-16T16:25:07.747Z,7.60
2022-11-16T16:27:41.877Z,7.38
2022-11-16T16:30:14.807Z,8.35
2022-11-16T16:32:42.788Z,24.80
2022-11-16T16:35:20.482Z,11.65
2022-11-16T16:37:50.771Z,12.93
2022-11-16T16:40:19.268Z,10.73
2022-11-16T16:42:49.813Z,9.27
2022-11-16T16:45:21.407Z,9.90
2022-11-16T16:47:49.530Z,12.18
2022-11-16T16:50:17.545Z,4.78
2022-11-16T16:52:45.913Z,8.63
2022-11-16T16:55:14.138Z,11.05
2022-11-16T16:57:42.200Z,10.63
2022-11-16T17:00:11.889Z,7.82
2022-11-16T17:02:40.000Z,7.85
2022-11-16T17:05:08.358Z,14.38
2022-11-16T17:07:36.443Z,13.13
2022-11-16T17:10:04.941Z,9.80
2022-11-16T17:12:32.986Z,8.00
2022-11-16T17:15:01.158Z,6.95
2022-11-16T17:17:29.150Z,10.70
2022-11-16T17:19:57.157Z,10.15
2022-11-16T17:22:25.175Z,11.73
2022-11-16T17:24:53.114Z,10.73
2022-11-16T17:27:21.138Z,6.82
2022-11-16T17:29:49.141Z,15.60
2022-11-16T17:32:17.206Z,9.95
2022-11-16T17:34:45.182Z,10.40
2022-11-16T17:37:14.279Z,10.77
2022-11-16T17:39:42.258Z,7.15
2022-11-16T17:42:10.364Z,6.40
2022-11-16T17:44:38.398Z,5.65
2022-11-16T17:47:07.658Z,6.00
2022-11-16T17:49:35.590Z,7.00
2022-11-16T17:52:05.283Z,8.32
2022-11-16T17:54:33.301Z,19.13
2022-11-16T17:57:01.477Z,8.88
2022-11-16T17:59:30.127Z,12.10
2022-11-16T18:01:58.301Z,5.70
2022-11-16T18:04:26.348Z,7.72
2022-11-16T18:06:54.532Z,11.75
2022-11-16T18:09:22.541Z,10.82
2022-11-16T18:11:50.529Z,8.35
2022-11-16T18:14:18.572Z,9.20
2022-11-16T18:16:48.117Z,10.82
2022-11-16T18:19:34.773Z,6.38
2022-11-16T18:22:02.727Z,9.90
2022-11-16T18:24:30.953Z,9.50
2022-11-16T18:27:17.500Z,9.02
2022-11-16T18:29:45.499Z,9.23
2022-11-16T18:32:13.493Z,6.85
2022-11-16T18:34:41.519Z,7.70
2022-11-16T18:37:09.537Z,6.78
2022-11-16T18:39:37.502Z,6.78
2022-11-16T18:42:05.540Z,8.32
2022-11-16T18:44:33.670Z,7.82
2022-11-16T18:47:03.323Z,7.60
2022-11-16T18:49:31.351Z,7.95
2022-11-16T18:51:59.349Z,6.80
2022-11-16T18:54:27.252Z,5.97
2022-11-16T18:56:56.059Z,6.25
2022-11-16T18:59:25.946Z,4.95
2022-11-16T19:01:53.977Z,5.78
2022-11-16T19:04:21.978Z,5.13
2022-11-16T19:07:08.904Z,6.38
2022-11-16T19:09:36.951Z,6.20
2022-11-16T19:12:05.104Z,5.70
2022-11-16T19:14:33.177Z,6.47
2022-11-16T19:17:01.219Z,6.07
2022-11-16T19:19:47.448Z,3.95
2022-11-16T19:22:15.553Z,3.58
2022-11-16T19:24:43.539Z,4.20
2022-11-16T19:27:12.659Z,4.07
2022-11-16T19:29:40.696Z,3.53
2022-11-16T19:32:08.800Z,8.23
2022-11-16T19:34:36.778Z,8.48
2022-11-16T19:37:04.890Z,6.93
2022-11-16T19:39:32.838Z,7.63
2022-11-16T19:42:00.861Z,7.75
2022-11-16T19:44:28.837Z,3.85
2022-11-16T19:46:57.587Z,3.63
2022-11-16T19:49:26.283Z,6.97
2022-11-16T19:52:12.961Z,6.13
2022-11-16T19:54:40.960Z,3.65
2022-11-16T19:57:08.906Z,4.40
2022-11-16T19:59:36.933Z,3.33
2022-11-16T20:02:05.072Z,5.28
2022-11-16T20:04:34.625Z,7.30
2022-11-16T20:07:02.627Z,9.07
2022-11-16T20:09:30.738Z,4.57
2022-11-16T20:11:59.733Z,3.55
2022-11-16T20:14:27.721Z,5.43
2022-11-16T20:16:55.670Z,4.75
2022-11-16T20:19:23.687Z,4.70
2022-11-16T20:21:53.438Z,4.65
2022-11-16T20:24:21.602Z,5.95
2022-11-16T20:29:34.932Z,5.40
2022-11-16T20:32:02.940Z,7.13
2022-11-16T20:34:31.304Z,4.10
2022-11-16T20:36:59.294Z,4.88
2022-11-16T20:39:27.304Z,6.13
2022-11-16T20:41:55.385Z,5.00
2022-11-16T20:44:41.817Z,5.72
2022-11-16T20:47:09.774Z,7.05
2022-11-16T20:49:37.805Z,4.30
2022-11-16T20:52:05.964Z,3.33
2022-11-16T20:54:34.163Z,4.93
2022-11-16T20:57:02.161Z,3.60
2022-11-16T20:59:30.392Z,5.38
2022-11-16T21:01:58.577Z,5.65
2022-11-16T21:04:27.478Z,3.35
2022-11-16T21:06:55.598Z,2.85
2022-11-16T21:09:24.076Z,3.38
2022-11-16T21:12:10.725Z,6.22
2022-11-16T21:14:38.821Z,3.83
2022-11-16T21:17:06.797Z,4.22
2022-11-16T21:19:34.881Z,3.53
2022-11-16T21:22:02.883Z,4.30
2022-11-16T21:24:32.464Z,3.13
2022-11-16T21:27:00.683Z,8.48
2022-11-16T21:29:28.923Z,3.03
2022-11-16T21:31:56.935Z,4.47
2022-11-16T21:34:28.059Z,9.15
2022-11-16T21:36:56.130Z,6.35
2022-11-16T21:39:24.142Z,6.15
2022-11-16T21:41:52.080Z,8.95
2022-11-16T21:44:20.065Z,6.07
2022-11-16T21:46:48.155Z,5.63
2022-11-16T21:49:16.130Z,6.40
2022-11-16T21:51:44.094Z,5.13
2022-11-16T21:54:12.149Z,3.78
2022-11-16T21:56:40.115Z,4.50
2022-11-16T21:59:08.106Z,8.70
2022-11-16T22:01:55.937Z,8.25
2022-11-16T22:04:42.798Z,7.00
2022-11-16T22:07:33.059Z,5.72
2022-11-16T22:10:02.000Z,6.28
2022-11-16T22:12:30.469Z,4.05
2022-11-16T22:17:44.814Z,9.75
2022-11-16T22:22:59.065Z,3.65
2022-11-16T22:25:27.286Z,4.32
2022-11-16T22:31:03.077Z,7.57
2022-11-16T22:33:31.543Z,4.25
2022-11-16T22:36:00.011Z,5.50
2022-11-16T22:38:28.474Z,4.65
2022-11-16T22:40:57.894Z,6.88
2022-11-16T22:43:28.822Z,3.67
2022-11-16T22:46:01.755Z,4.60
2022-11-16T22:48:35.671Z,6.55
2022-11-16T22:51:49.070Z,1.60
2022-11-16T22:54:17.205Z,7.55
2022-11-16T22:56:45.531Z,5.85
2022-11-16T22:59:13.797Z,3.67
2022-11-16T23:01:42.065Z,4.53
2022-11-16T23:04:10.291Z,8.48
2022-11-16T23:06:38.599Z,7.20
2022-11-16T23:09:06.724Z,4.70
2022-11-16T23:12:12.080Z,4.93
2022-11-16T23:14:58.744Z,4.90
2022-11-16T23:17:46.296Z,6.47
2022-11-16T23:20:32.617Z,8.07
2022-11-16T23:23:19.218Z,3.05
2022-11-16T23:26:05.913Z,5.00
2022-11-16T23:28:34.826Z,7.43
2022-11-16T23:31:02.965Z,4.18
2022-11-16T23:33:46.102Z,6.38
2022-11-16T23:36:14.662Z,4.80
2022-11-16T23:38:42.709Z,4.32
2022-11-16T23:41:29.472Z,7.35
2022-11-16T23:44:00.738Z,6.07
2022-11-16T23:46:47.323Z,5.97
2022-11-16T23:49:15.535Z,6.55
2022-11-16T23:51:43.590Z,8.98
2022-11-16T23:54:11.775Z,4.85
2022-11-16T23:56:39.955Z,6.85
2022-11-16T23:59:08.052Z,6.95
